Time;durP1;ratioP1;P1;durP2;ratioP2;P2;SDS_P1;SDS_P2;PMS_P1;PMS_P2;Temp;Humidity;BMP_temperature;BMP_pressure;BME280_temperature;BME280_humidity;BME280_pressure;Samples;Min_cycle;Max_cycle;Signal;HPM_P1;HPM_P2
2022/07/22 00:01:14;;;;;;;5.40;3.30;;;25.70;75.00;;;;;;5093467;28;20432;-78
2022/07/22 00:03:40;;;;;;;6.03;3.60;;;25.70;74.70;;;;;;5093929;28;20035;-79
2022/07/22 00:06:06;;;;;;;4.03;3.40;;;25.70;74.90;;;;;;5093960;28;20050;-78
2022/07/22 00:08:31;;;;;;;7.00;3.30;;;25.60;74.70;;;;;;5093009;28;20028;-79
2022/07/22 00:10:57;;;;;;;10.88;3.55;;;25.60;75.00;;;;;;5093719;28;20460;-79
2022/07/22 00:13:23;;;;;;;3.85;3.17;;;25.60;75.10;;;;;;5093301;28;20020;-79
2022/07/22 00:15:49;;;;;;;4.22;3.38;;;25.50;75.40;;;;;;5093639;28;20031;-78
2022/07/22 00:18:15;;;;;;;4.97;3.47;;;25.50;75.10;;;;;;5092742;28;20028;-78
2022/07/22 00:20:42;;;;;;;4.85;3.53;;;25.50;75.20;;;;;;5093301;28;20027;-78
2022/07/22 00:23:08;;;;;;;4.57;3.22;;;25.50;75.00;;;;;;5093332;28;20039;-78
2022/07/22 00:25:34;;;;;;;5.72;3.72;;;25.40;75.20;;;;;;5093075;28;20032;-79
2022/07/22 00:27:59;;;;;;;4.30;3.53;;;25.40;75.40;;;;;;5092418;28;20449;-79
2022/07/22 00:30:25;;;;;;;4.75;3.70;;;25.30;74.90;;;;;;5092559;28;20051;-78
2022/07/22 00:32:51;;;;;;;5.18;3.70;;;25.30;74.90;;;;;;5093296;28;20063;-78
2022/07/22 00:35:17;;;;;;;4.95;3.67;;;25.20;74.70;;;;;;5092635;28;20024;-78
2022/07/22 00:37:43;;;;;;;7.28;4.18;;;25.20;74.90;;;;;;5093389;28;20024;-78
2022/07/22 00:40:09;;;;;;;4.28;3.25;;;25.10;75.30;;;;;;5093260;28;20035;-78
2022/07/22 00:42:35;;;;;;;4.93;3.33;;;25.10;75.60;;;;;;5092438;28;20341;-78
2022/07/22 00:45:01;;;;;;;5.03;3.67;;;25.10;75.80;;;;;;5092025;28;20028;-79
2022/07/22 00:47:26;;;;;;;4.57;3.72;;;25.10;75.90;;;;;;5092455;28;20028;-78
2022/07/22 00:49:52;;;;;;;4.57;3.55;;;25.10;76.40;;;;;;5093115;28;20028;-79
2022/07/22 00:52:19;;;;;;;6.95;4.40;;;25.00;76.40;;;;;;5092693;28;20115;-79
2022/07/22 00:54:45;;;;;;;4.57;3.65;;;25.00;76.80;;;;;;5093154;28;20111;-78
2022/07/22 00:57:10;;;;;;;5.25;3.53;;;25.00;77.00;;;;;;5092930;28;20536;-78
2022/07/22 00:59:36;;;;;;;3.75;3.17;;;25.00;77.00;;;;;;5092672;28;20494;-79
2022/07/22 01:02:02;;;;;;;6.35;3.95;;;24.90;77.20;;;;;;5092994;28;20024;-79
2022/07/22 01:04:28;;;;;;;4.20;3.40;;;24.90;77.70;;;;;;5092314;28;20059;-79
2022/07/22 01:06:54;;;;;;;4.40;3.45;;;24.80;78.10;;;;;;5092701;28;20024;-78
2022/07/22 01:09:20;;;;;;;4.45;3.47;;;24.70;78.40;;;;;;5092602;28;20031;-78
2022/07/22 01:11:46;;;;;;;5.65;3.90;;;24.70;78.70;;;;;;5092917;28;20059;-78
2022/07/22 01:14:11;;;;;;;4.68;3.22;;;24.70;79.30;;;;;;5093033;28;20069;-79
2022/07/22 01:16:37;;;;;;;3.88;3.35;;;24.60;79.80;;;;;;5092490;28;20032;-78
2022/07/22 01:19:03;;;;;;;4.72;3.65;;;24.50;80.30;;;;;;5092903;28;20384;-78
2022/07/22 01:21:29;;;;;;;4.70;3.75;;;24.50;80.50;;;;;;5092353;28;20369;-77
2022/07/22 01:23:54;;;;;;;4.35;3.40;;;24.50;80.60;;;;;;5092752;28;20028;-78
2022/07/22 01:26:20;;;;;;;5.75;3.42;;;24.40;81.10;;;;;;5092461;28;20028;-78
2022/07/22 01:28:46;;;;;;;5.75;3.50;;;24.30;81.40;;;;;;5092438;28;20405;-78
2022/07/22 01:31:12;;;;;;;5.57;3.75;;;24.40;81.80;;;;;;5093040;28;20028;-77
2022/07/22 01:33:38;;;;;;;4.07;3.70;;;24.40;82.10;;;;;;5092267;28;20024;-77
2022/07/22 01:36:05;;;;;;;5.45;3.70;;;24.30;82.20;;;;;;5092771;28;20077;-78
2022/07/22 01:38:30;;;;;;;4.70;3.58;;;24.30;82.20;;;;;;5092435;28;20034;-78
2022/07/22 01:40:56;;;;;;;4.65;3.80;;;24.30;82.30;;;;;;5096982;28;20476;-79
2022/07/22 01:43:22;;;;;;;5.72;3.75;;;24.30;82.40;;;;;;5095877;28;20036;-78
2022/07/22 01:45:50;;;;;;;3.75;3.28;;;24.30;82.50;;;;;;5096364;28;20035;-79
2022/07/22 01:48:16;;;;;;;4.30;3.35;;;24.20;82.30;;;;;;5096228;28;20024;-79
2022/07/22 01:50:42;;;;;;;4.85;3.55;;;24.20;82.20;;;;;;5096025;28;20024;-78
2022/07/22 01:53:08;;;;;;;4.60;3.63;;;24.20;82.30;;;;;;5096409;28;20036;-78
2022/07/22 01:55:35;;;;;;;5.95;3.15;;;24.20;82.30;;;;;;5096217;28;20035;-78
2022/07/22 01:58:00;;;;;;;4.40;3.50;;;24.20;82.10;;;;;;5096169;28;20032;-78
2022/07/22 02:00:27;;;;;;;4.07;3.53;;;24.20;81.70;;;;;;5095659;28;20111;-79
2022/07/22 02:02:52;;;;;;;6.43;3.63;;;24.10;81.90;;;;;;5096233;28;20035;-78
2022/07/22 02:05:18;;;;;;;3.55;3.25;;;24.10;82.00;;;;;;5096118;28;20024;-78
2022/07/22 02:07:44;;;;;;;4.70;3.95;;;24.10;82.00;;;;;;5094423;28;20384;-79
2022/07/22 02:10:09;;;;;;;4.85;3.40;;;24.10;82.20;;;;;;5095989;28;20554;-78
2022/07/22 02:12:35;;;;;;;4.20;3.40;;;24.10;82.30;;;;;;5095675;28;20101;-79
2022/07/22 02:15:00;;;;;;;5.40;3.72;;;24.10;82.40;;;;;;5095726;28;20457;-79
2022/07/22 02:17:26;;;;;;;5.47;3.92;;;24.10;82.40;;;;;;5095578;28;20103;-78
2022/07/22 02:19:52;;;;;;;5.22;4.35;;;24.10;82.30;;;;;;5095891;28;20024;-79
2022/07/22 02:22:18;;;;;;;5.43;3.60;;;24.20;82.30;;;;;;5095808;28;20027;-79
2022/07/22 02:24:43;;;;;;;5.90;3.63;;;24.20;82.30;;;;;;5095385;28;20032;-79
2022/07/22 02:27:09;;;;;;;4.57;3.42;;;24.20;82.10;;;;;;5095766;28;20024;-79
2022/07/22 02:29:34;;;;;;;6.03;4.00;;;24.20;81.90;;;;;;5093547;28;20109;-79
2022/07/22 02:32:00;;;;;;;4.70;3.65;;;24.20;81.70;;;;;;5095372;28;20032;-78
2022/07/22 02:34:26;;;;;;;7.03;3.80;;;24.20;81.60;;;;;;5095224;28;20062;-78
2022/07/22 02:36:52;;;;;;;4.38;3.60;;;24.20;81.80;;;;;;5095599;28;20029;-79
2022/07/22 02:39:18;;;;;;;4.22;3.50;;;24.20;82.30;;;;;;5095215;28;20047;-79
2022/07/22 02:41:43;;;;;;;4.93;3.75;;;24.20;81.50;;;;;;5094766;28;20457;-79
2022/07/22 02:44:09;;;;;;;4.47;3.40;;;24.20;81.60;;;;;;5094976;28;20039;-78
2022/07/22 02:46:35;;;;;;;4.18;3.78;;;24.20;81.50;;;;;;5095009;28;20039;-78
2022/07/22 02:49:01;;;;;;;4.78;3.67;;;24.20;81.50;;;;;;5095325;28;20028;-78
2022/07/22 02:51:26;;;;;;;4.47;3.63;;;24.20;81.40;;;;;;5093666;28;20079;-78
2022/07/22 02:53:52;;;;;;;4.88;3.80;;;24.20;81.40;;;;;;5095289;28;20028;-79
2022/07/22 02:56:19;;;;;;;5.07;4.03;;;24.20;81.50;;;;;;5095495;28;20028;-78
2022/07/22 02:58:46;;;;;;;4.03;3.63;;;24.20;81.70;;;;;;5094727;28;20170;-79
2022/07/22 03:01:12;;;;;;;5.90;3.90;;;24.20;82.00;;;;;;5095001;28;20039;-79
2022/07/22 03:03:37;;;;;;;4.03;3.42;;;24.20;82.20;;;;;;5093403;28;20028;-78
2022/07/22 03:06:03;;;;;;;5.43;4.30;;;24.10;82.40;;;;;;5095420;28;20354;-79
2022/07/22 03:08:29;;;;;;;5.95;4.13;;;24.20;82.30;;;;;;5093223;28;20389;-78
2022/07/22 03:10:54;;;;;;;5.85;4.10;;;24.10;82.60;;;;;;5094941;28;20031;-79
2022/07/22 03:13:20;;;;;;;5.15;4.07;;;24.10;82.60;;;;;;5095004;28;20028;-78
2022/07/22 03:15:45;;;;;;;5.47;3.78;;;24.10;82.70;;;;;;5094072;28;20380;-79
2022/07/22 03:18:11;;;;;;;4.63;3.95;;;24.20;82.70;;;;;;5094831;28;20021;-79
2022/07/22 03:20:37;;;;;;;4.80;3.88;;;24.20;82.60;;;;;;5094103;28;20028;-79
2022/07/22 03:23:03;;;;;;;5.00;3.72;;;24.20;82.70;;;;;;5094633;28;20396;-79
2022/07/22 03:25:30;;;;;;;6.28;4.38;;;24.10;82.70;;;;;;5094432;28;20357;-79
2022/07/22 03:27:56;;;;;;;5.43;4.10;;;24.10;82.80;;;;;;5094630;28;20099;-79
2022/07/22 03:30:23;;;;;;;5.80;4.60;;;24.10;83.00;;;;;;5094586;28;20449;-79
2022/07/22 03:32:49;;;;;;;4.55;3.58;;;24.20;82.90;;;;;;5092829;28;20464;-79
2022/07/22 03:35:15;;;;;;;5.15;4.00;;;24.10;82.90;;;;;;5094439;28;20062;-80
2022/07/22 03:37:41;;;;;;;4.93;4.40;;;24.20;82.90;;;;;;5092752;28;20107;-79
2022/07/22 03:40:08;;;;;;;5.55;4.32;;;24.20;82.70;;;;;;5094345;28;20032;-79
2022/07/22 03:42:34;;;;;;;6.55;4.28;;;24.20;82.70;;;;;;5093898;28;20059;-79
2022/07/22 03:44:59;;;;;;;5.25;4.10;;;24.20;82.70;;;;;;5094667;28;20476;-79
2022/07/22 03:47:25;;;;;;;5.82;4.35;;;24.20;82.60;;;;;;5094178;28;20028;-79
2022/07/22 03:49:52;;;;;;;4.72;4.10;;;24.20;82.40;;;;;;5092521;28;20051;-79
2022/07/22 03:52:17;;;;;;;7.90;4.65;;;24.30;82.60;;;;;;5093799;28;20039;-79
2022/07/22 03:54:43;;;;;;;5.80;3.80;;;24.30;82.40;;;;;;5093861;28;20020;-79
2022/07/22 03:57:09;;;;;;;5.55;4.18;;;24.30;82.20;;;;;;5094033;28;20026;-78
2022/07/22 03:59:35;;;;;;;6.00;4.32;;;24.30;82.00;;;;;;5093585;28;20031;-79
2022/07/22 04:02:01;;;;;;;4.38;3.90;;;24.40;81.90;;;;;;5093528;28;20448;-79
2022/07/22 04:04:27;;;;;;;5.55;4.15;;;24.40;81.80;;;;;;5093598;28;20036;-79
2022/07/22 04:06:52;;;;;;;4.85;3.90;;;24.40;81.20;;;;;;5093449;28;20099;-79
2022/07/22 04:09:18;;;;;;;5.32;4.10;;;24.40;81.10;;;;;;5093994;28;20074;-78
2022/07/22 04:11:44;;;;;;;5.75;4.32;;;24.50;81.20;;;;;;5092939;28;20061;-79
2022/07/22 04:14:10;;;;;;;6.18;4.28;;;24.40;80.50;;;;;;5093302;28;20028;-80
2022/07/22 04:16:37;;;;;;;5.32;4.18;;;24.50;80.70;;;;;;5092221;28;20032;-79
2022/07/22 04:19:03;;;;;;;6.43;4.38;;;24.50;80.90;;;;;;5093416;28;20447;-79
2022/07/22 04:21:29;;;;;;;7.32;4.38;;;24.50;80.50;;;;;;5093234;28;20023;-79
2022/07/22 04:23:55;;;;;;;4.90;3.80;;;24.50;80.60;;;;;;5093694;28;20032;-79
2022/07/22 04:26:22;;;;;;;5.13;4.03;;;24.70;80.30;;;;;;5093241;28;20129;-80
2022/07/22 04:28:48;;;;;;;5.97;4.43;;;24.70;80.00;;;;;;5092016;28;20050;-79
2022/07/22 04:31:13;;;;;;;6.32;4.65;;;24.80;79.30;;;;;;5093033;28;20028;-79
2022/07/22 04:33:39;;;;;;;4.55;4.10;;;24.90;78.80;;;;;;5093114;28;20069;-80
2022/07/22 04:36:05;;;;;;;7.63;4.22;;;24.90;78.50;;;;;;5093054;28;20028;-79
2022/07/22 04:38:31;;;;;;;6.10;4.35;;;25.00;77.70;;;;;;5093434;28;20028;-78
2022/07/22 04:40:57;;;;;;;5.78;4.47;;;25.10;77.40;;;;;;5093410;28;20123;-79
2022/07/22 04:43:23;;;;;;;6.97;4.63;;;25.20;77.40;;;;;;5092807;28;20067;-80
2022/07/22 04:45:49;;;;;;;7.25;3.90;;;25.30;76.60;;;;;;5092649;28;20484;-79
2022/07/22 04:48:15;;;;;;;5.78;4.40;;;25.40;75.90;;;;;;5093271;28;20028;-79
2022/07/22 04:50:41;;;;;;;6.43;4.13;;;25.50;75.80;;;;;;5092527;28;20407;-79
2022/07/22 04:53:07;;;;;;;5.32;4.20;;;25.60;74.80;;;;;;5091869;28;20084;-79
2022/07/22 04:55:32;;;;;;;5.00;4.20;;;25.60;74.40;;;;;;5092699;28;20028;-78
2022/07/22 04:57:58;;;;;;;5.35;4.72;;;25.60;74.10;;;;;;5091800;28;20024;-77
2022/07/22 05:00:24;;;;;;;5.82;4.40;;;25.60;74.00;;;;;;5093036;28;20481;-78
2022/07/22 05:02:49;;;;;;;6.05;4.32;;;25.70;74.00;;;;;;5092494;28;20028;-80
2022/07/22 05:05:15;;;;;;;7.03;4.10;;;25.70;73.90;;;;;;5093306;28;20028;-79
2022/07/22 05:07:41;;;;;;;5.15;3.70;;;25.80;74.00;;;;;;5092357;28;20059;-79
2022/07/22 05:10:07;;;;;;;5.43;4.18;;;25.90;73.30;;;;;;5092610;28;20024;-79
2022/07/22 05:12:32;;;;;;;4.95;3.47;;;26.00;72.40;;;;;;5093349;28;20031;-80
2022/07/22 05:14:58;;;;;;;6.10;4.57;;;26.20;72.10;;;;;;5095832;28;20466;-79
2022/07/22 05:17:24;;;;;;;6.30;4.07;;;26.30;71.60;;;;;;5095913;28;20025;-78
2022/07/22 05:19:49;;;;;;;7.97;4.10;;;26.40;70.90;;;;;;5096428;28;20024;-79
2022/07/22 05:22:15;;;;;;;5.68;4.03;;;26.60;70.30;;;;;;5096948;28;20039;-78
2022/07/22 05:24:41;;;;;;;5.90;4.60;;;26.80;69.70;;;;;;5096454;28;20476;-79
2022/07/22 05:27:06;;;;;;;5.85;4.10;;;27.00;68.90;;;;;;5097034;28;20028;-79
2022/07/22 05:29:32;;;;;;;4.47;3.72;;;27.20;68.20;;;;;;5097090;28;20052;-79
2022/07/22 05:31:58;;;;;;;5.10;3.67;;;27.50;67.40;;;;;;5096456;28;20032;-80
2022/07/22 05:34:23;;;;;;;5.28;4.18;;;27.80;65.90;;;;;;5096563;28;20024;-79
2022/07/22 05:36:49;;;;;;;3.67;3.30;;;28.00;64.70;;;;;;5096661;28;20052;-79
2022/07/22 05:39:14;;;;;;;4.78;3.80;;;28.10;64.30;;;;;;5095280;28;20119;-80
2022/07/22 05:41:40;;;;;;;3.97;3.42;;;28.40;63.20;;;;;;5096319;28;20064;-79
2022/07/22 05:44:06;;;;;;;5.57;3.90;;;28.60;62.90;;;;;;5096675;28;20111;-79
2022/07/22 05:46:32;;;;;;;7.65;4.40;;;28.70;62.20;;;;;;5096190;28;20062;-79
2022/07/22 05:48:57;;;;;;;4.47;3.75;;;29.00;61.70;;;;;;5096082;28;20126;-79
2022/07/22 05:51:23;;;;;;;7.00;4.80;;;29.10;60.90;;;;;;5096317;28;20030;-80
2022/07/22 05:53:49;;;;;;;7.75;4.13;;;29.40;59.80;;;;;;5095921;28;20036;-79
2022/07/22 05:56:15;;;;;;;5.55;4.10;;;29.60;59.70;;;;;;5096379;28;20073;-80
2022/07/22 05:58:41;;;;;;;8.88;4.00;;;29.80;58.60;;;;;;5095645;28;20024;-79
2022/07/22 06:01:10;;;;;;;4.97;3.58;;;30.00;58.30;;;;;;5094797;28;20053;-79
2022/07/22 06:03:36;;;;;;;5.40;3.60;;;30.20;58.10;;;;;;5095542;28;20040;-79
2022/07/22 06:06:04;;;;;;;4.53;4.10;;;30.50;56.20;;;;;;5095663;28;20410;-79
2022/07/22 06:08:31;;;;;;;7.80;3.72;;;30.60;55.60;;;;;;5096246;28;20027;-79
2022/07/22 06:10:59;;;;;;;4.22;3.47;;;30.80;54.70;;;;;;5095394;28;20028;-79
2022/07/22 06:13:25;;;;;;;4.97;3.50;;;30.60;55.10;;;;;;5096196;28;20028;-79
2022/07/22 06:15:51;;;;;;;4.28;3.72;;;30.90;54.60;;;;;;5095322;28;20020;-79
2022/07/22 06:18:16;;;;;;;5.88;3.80;;;31.10;53.60;;;;;;5095505;28;20020;-80
2022/07/22 06:20:42;;;;;;;5.93;3.97;;;31.20;52.60;;;;;;5095614;28;20113;-80
2022/07/22 06:23:08;;;;;;;6.43;3.78;;;31.10;52.70;;;;;;5095673;28;20101;-80
2022/07/22 06:25:33;;;;;;;4.90;3.58;;;31.10;51.90;;;;;;5095621;28;20105;-79
2022/07/22 06:27:59;;;;;;;4.30;3.63;;;31.10;52.10;;;;;;5095299;28;20036;-80
2022/07/22 06:30:26;;;;;;;4.88;3.60;;;31.10;52.20;;;;;;5096049;28;20044;-80
2022/07/22 06:32:52;;;;;;;4.78;3.30;;;31.30;52.40;;;;;;5095370;28;20055;-81
2022/07/22 06:35:19;;;;;;;4.47;3.55;;;31.40;51.50;;;;;;5095524;28;20557;-80
2022/07/22 06:37:45;;;;;;;6.00;3.47;;;31.50;50.70;;;;;;5095481;28;20028;-80
2022/07/22 06:40:11;;;;;;;3.97;3.35;;;31.60;50.80;;;;;;5095742;28;20131;-80
2022/07/22 06:42:38;;;;;;;4.40;3.40;;;31.80;50.40;;;;;;5095058;28;20405;-79
2022/07/22 06:45:04;;;;;;;4.55;3.28;;;31.90;50.20;;;;;;5096094;28;20050;-82
2022/07/22 06:47:31;;;;;;;3.40;3.10;;;31.80;49.50;;;;;;5097016;28;20028;-81
2022/07/22 06:49:57;;;;;;;4.40;3.33;;;32.00;49.70;;;;;;5096745;28;20031;-80
2022/07/22 06:52:23;;;;;;;5.55;3.40;;;32.40;49.90;;;;;;5097168;28;20028;-80
2022/07/22 06:54:49;;;;;;;4.18;3.17;;;32.80;48.60;;;;;;5096835;28;20031;-80
2022/07/22 06:57:14;;;;;;;3.83;3.20;;;33.10;47.80;;;;;;5098332;28;20471;-81
2022/07/22 06:59:40;;;;;;;3.88;3.25;;;33.50;46.90;;;;;;5098354;28;20161;-81
2022/07/22 07:02:06;;;;;;;4.13;3.30;;;33.90;45.80;;;;;;5097545;28;20032;-81
2022/07/22 07:04:31;;;;;;;3.08;2.78;;;34.10;46.00;;;;;;5098084;28;20028;-80
2022/07/22 07:06:57;;;;;;;4.45;3.08;;;34.50;45.20;;;;;;5096928;28;20036;-80
2022/07/22 07:09:23;;;;;;;3.33;3.00;;;34.80;44.30;;;;;;5099738;28;20056;-82
2022/07/22 07:11:48;;;;;;;3.60;3.30;;;35.30;43.70;;;;;;5099799;28;20035;-80
2022/07/22 07:14:14;;;;;;;4.65;3.70;;;35.60;43.10;;;;;;5100423;28;20051;-80
2022/07/22 07:16:40;;;;;;;2.83;2.50;;;35.90;43.10;;;;;;5099670;28;20045;-79
2022/07/22 07:19:06;;;;;;;32.10;11.85;;;36.30;41.90;;;;;;5098854;28;20028;-80
2022/07/22 07:21:31;;;;;;;5.28;3.60;;;36.90;41.80;;;;;;5097628;28;20110;-80
2022/07/22 07:23:58;;;;;;;4.20;3.20;;;37.30;40.50;;;;;;5096647;28;20023;-80
2022/07/22 07:26:23;;;;;;;4.00;3.60;;;37.30;39.90;;;;;;5097200;28;20024;-81
2022/07/22 07:28:49;;;;;;;3.78;3.42;;;37.50;39.30;;;;;;5095277;28;20494;-81
2022/07/22 07:31:15;;;;;;;4.55;3.60;;;37.40;39.40;;;;;;5097380;28;20115;-80
2022/07/22 07:33:40;;;;;;;3.45;3.15;;;37.00;39.50;;;;;;5096126;28;20024;-80
2022/07/22 07:36:06;;;;;;;3.75;3.35;;;36.90;39.70;;;;;;5095329;28;20030;-79
2022/07/22 07:38:34;;;;;;;3.90;3.53;;;36.90;39.80;;;;;;5096061;28;20024;-80
2022/07/22 07:40:59;;;;;;;5.57;3.65;;;36.90;39.70;;;;;;5095277;28;20031;-81
2022/07/22 07:43:25;;;;;;;5.28;3.45;;;36.90;40.00;;;;;;5095545;28;20040;-81
2022/07/22 07:45:51;;;;;;;4.50;3.28;;;37.00;40.00;;;;;;5094299;28;20056;-80
2022/07/22 07:48:16;;;;;;;4.25;3.30;;;37.10;40.00;;;;;;5095434;28;20028;-80
2022/07/22 07:50:42;;;;;;;3.50;3.13;;;37.20;39.30;;;;;;5095234;28;20464;-80
2022/07/22 07:53:07;;;;;;;4.32;3.30;;;37.20;39.20;;;;;;5094641;28;20456;-80
2022/07/22 07:55:37;;;;;;;4.30;3.90;;;37.20;39.50;;;;;;5095786;28;20043;-80
2022/07/22 07:58:03;;;;;;;4.45;3.50;;;37.40;39.60;;;;;;5094606;28;20028;-81
2022/07/22 08:00:30;;;;;;;4.80;3.58;;;37.30;38.60;;;;;;5094583;28;20032;-82
2022/07/22 08:02:56;;;;;;;4.07;3.30;;;37.50;39.30;;;;;;5093559;28;20060;-81
2022/07/22 08:05:22;;;;;;;3.95;3.65;;;37.50;38.70;;;;;;5094484;28;20081;-81
2022/07/22 08:07:48;;;;;;;5.95;3.75;;;37.20;39.00;;;;;;5092950;28;20032;-80
2022/07/22 08:10:14;;;;;;;4.82;3.78;;;37.50;38.70;;;;;;5094869;28;20366;-81
2022/07/22 08:12:40;;;;;;;4.72;3.40;;;37.60;39.10;;;;;;5093904;28;20039;-82
2022/07/22 08:15:06;;;;;;;4.35;3.83;;;38.10;38.80;;;;;;5093694;28;20039;-81
2022/07/22 08:17:33;;;;;;;4.25;3.33;;;38.40;37.90;;;;;;5093882;28;20024;-81
2022/07/22 08:19:59;;;;;;;4.68;3.20;;;38.70;37.70;;;;;;5093459;28;20069;-81
2022/07/22 08:22:25;;;;;;;3.35;3.05;;;39.20;37.20;;;;;;5094594;28;20032;-83
2022/07/22 08:24:51;;;;;;;4.18;3.50;;;39.60;36.30;;;;;;5094171;28;20028;-82
2022/07/22 08:27:16;;;;;;;5.45;3.78;;;40.10;36.20;;;;;;5094536;28;20024;-81
2022/07/22 08:29:42;;;;;;;4.30;3.90;;;40.50;35.90;;;;;;5093996;28;20044;-81
2022/07/22 08:32:08;;;;;;;5.03;3.63;;;40.90;35.50;;;;;;5093900;28;20111;-81
2022/07/22 08:34:34;;;;;;;3.85;3.25;;;41.10;35.10;;;;;;5093936;28;20031;-81
2022/07/22 08:37:00;;;;;;;4.07;3.47;;;41.50;35.00;;;;;;5093648;28;20024;-80
2022/07/22 08:39:26;;;;;;;3.65;2.90;;;41.80;35.00;;;;;;5093840;28;20034;-80
2022/07/22 08:41:52;;;;;;;3.50;3.20;;;42.10;33.90;;;;;;5093095;28;20053;-80
2022/07/22 08:44:18;;;;;;;3.30;3.00;;;42.40;33.60;;;;;;5094346;28;20036;-81
2022/07/22 08:46:44;;;;;;;4.90;3.47;;;42.60;33.40;;;;;;5094476;28;20042;-80
2022/07/22 08:49:14;;;;;;;5.20;3.30;;;42.70;33.10;;;;;;5093989;28;20349;-80
2022/07/22 08:51:39;;;;;;;4.32;3.55;;;42.30;33.00;;;;;;5096345;28;20028;-81
2022/07/22 08:54:05;;;;;;;5.25;3.30;;;42.20;33.20;;;;;;5098338;28;20502;-81
2022/07/22 08:56:31;;;;;;;3.55;3.15;;;42.10;33.80;;;;;;5094597;28;20080;-81
2022/07/22 08:58:56;;;;;;;3.05;2.75;;;41.50;33.80;;;;;;5096887;28;20081;-81
2022/07/22 09:01:22;;;;;;;4.90;3.33;;;40.70;33.80;;;;;;5095179;28;20035;-81
2022/07/22 09:03:49;;;;;;;3.28;2.95;;;39.90;34.50;;;;;;5093270;28;20101;-81
2022/07/22 09:06:16;;;;;;;4.07;3.30;;;39.20;34.90;;;;;;5092645;28;20033;-81
2022/07/22 09:08:55;;;;;;;5.10;3.65;;;38.50;35.90;;;;;;5093037;28;20027;-81
2022/07/22 09:11:24;;;;;;;3.55;2.55;;;38.00;36.60;;;;;;5093249;28;20028;-83
2022/07/22 09:13:51;;;;;;;4.30;3.25;;;37.50;36.20;;;;;;5093243;28;20020;-82
2022/07/22 09:16:37;;;;;;;3.80;3.20;;;36.90;37.00;;;;;;5092959;28;20058;-82
2022/07/22 09:19:02;;;;;;;3.60;3.17;;;36.60;38.10;;;;;;5092550;28;20077;-82
2022/07/22 09:21:30;;;;;;;3.40;3.10;;;36.40;39.00;;;;;;5092978;28;20024;-82
2022/07/22 09:23:56;;;;;;;3.30;3.00;;;36.10;38.90;;;;;;5092652;28;20027;-82
2022/07/22 09:26:37;;;;;;;5.00;3.55;;;35.90;39.10;;;;;;5092925;28;20032;-82
2022/07/22 09:29:04;;;;;;;3.30;2.95;;;35.50;38.90;;;;;;5092306;28;20365;-82
2022/07/22 09:31:33;;;;;;;3.45;3.03;;;35.40;39.50;;;;;;5093130;28;20036;-83
2022/07/22 09:33:59;;;;;;;4.00;3.03;;;35.30;39.60;;;;;;5092455;28;20379;-82
2022/07/22 09:36:25;;;;;;;5.78;3.25;;;35.20;39.60;;;;;;5093454;28;20024;-82
2022/07/22 09:38:52;;;;;;;3.40;3.10;;;34.90;39.80;;;;;;5093486;28;20031;-81
2022/07/22 09:41:18;;;;;;;3.50;3.00;;;34.60;39.90;;;;;;5092741;28;20039;-82
2022/07/22 09:43:44;;;;;;;3.15;2.85;;;34.60;39.40;;;;;;5092760;28;20028;-81
2022/07/22 09:46:10;;;;;;;4.20;3.00;;;34.50;39.60;;;;;;5092786;28;20073;-82
2022/07/22 09:48:38;;;;;;;3.90;3.13;;;34.50;38.80;;;;;;5093511;28;20024;-81
2022/07/22 09:51:04;;;;;;;3.13;2.83;;;34.40;39.40;;;;;;5093310;28;20031;-82
2022/07/22 09:53:31;;;;;;;4.00;3.13;;;34.50;39.60;;;;;;5093597;28;20042;-83
2022/07/22 09:55:58;;;;;;;7.32;3.78;;;34.40;39.90;;;;;;5093797;28;20116;-81
2022/07/22 09:58:25;;;;;;;3.25;2.67;;;34.40;40.50;;;;;;5094632;28;20035;-81
2022/07/22 10:00:52;;;;;;;3.55;2.85;;;34.40;38.90;;;;;;5097048;28;20032;-82
2022/07/22 10:03:25;;;;;;;3.70;2.75;;;34.30;38.50;;;;;;5096554;28;20380;-81
2022/07/22 10:05:52;;;;;;;3.20;2.75;;;34.30;38.40;;;;;;5097201;28;20093;-82
2022/07/22 10:08:19;;;;;;;4.25;3.08;;;34.20;39.00;;;;;;5096679;28;20107;-82
2022/07/22 10:10:45;;;;;;;4.78;3.10;;;34.10;39.80;;;;;;5097438;28;20093;-82
2022/07/22 10:13:10;;;;;;;5.35;2.92;;;34.10;40.60;;;;;;5097718;28;20027;-82
2022/07/22 10:15:37;;;;;;;3.83;3.00;;;34.10;39.90;;;;;;5097374;28;20028;-83
2022/07/22 10:18:13;;;;;;;3.72;3.03;;;34.10;38.80;;;;;;5096425;28;20028;-82
2022/07/22 10:20:39;;;;;;;4.57;3.17;;;34.00;38.90;;;;;;5097100;28;20024;-82
2022/07/22 10:23:10;;;;;;;3.40;2.85;;;34.00;38.80;;;;;;5096693;28;20538;-81
2022/07/22 10:25:53;;;;;;;5.15;3.00;;;34.00;39.90;;;;;;5097509;28;20024;-82
2022/07/22 10:28:23;;;;;;;3.90;2.70;;;34.00;39.60;;;;;;5095566;28;20031;-82
2022/07/22 10:30:49;;;;;;;3.10;2.80;;;34.00;38.50;;;;;;5095938;28;20545;-82
2022/07/22 10:33:19;;;;;;;5.10;2.83;;;34.10;39.80;;;;;;5095964;28;20032;-82
2022/07/22 10:35:58;;;;;;;4.00;2.90;;;34.20;40.60;;;;;;5097102;28;20021;-83
2022/07/22 10:38:25;;;;;;;3.90;3.15;;;34.40;39.60;;;;;;5097024;28;20020;-82
2022/07/22 10:40:58;;;;;;;3.83;3.30;;;34.30;39.50;;;;;;5095915;28;20115;-81
2022/07/22 10:43:31;;;;;;;5.60;3.22;;;34.30;40.20;;;;;;5096888;28;20036;-81
2022/07/22 10:46:05;;;;;;;4.88;3.17;;;34.10;40.20;;;;;;5097268;28;20028;-82
2022/07/22 10:48:36;;;;;;;3.72;3.42;;;34.10;40.00;;;;;;5097627;28;20028;-82
2022/07/22 10:51:08;;;;;;;4.80;3.20;;;34.10;40.60;;;;;;5097680;28;20054;-82
2022/07/22 10:53:40;;;;;;;4.13;2.85;;;34.20;40.40;;;;;;5099145;28;20067;-81
2022/07/22 10:56:23;;;;;;;4.60;3.42;;;34.10;40.90;;;;;;5097750;28;20043;-82
2022/07/22 10:59:08;;;;;;;3.88;3.13;;;34.00;40.20;;;;;;5096370;28;20020;-81
2022/07/22 11:01:35;;;;;;;4.00;3.60;;;34.10;41.20;;;;;;5096758;28;20024;-81
2022/07/22 11:04:21;;;;;;;4.18;3.30;;;34.10;41.30;;;;;;5096263;28;20016;-81
2022/07/22 11:06:49;;;;;;;3.85;3.15;;;34.20;41.10;;;;;;5096141;28;20024;-82
2022/07/22 11:09:16;;;;;;;3.50;2.88;;;34.30;40.70;;;;;;5096888;28;20085;-83
2022/07/22 11:11:54;;;;;;;4.57;3.22;;;34.40;40.80;;;;;;5095823;28;20035;-82
2022/07/22 11:14:27;;;;;;;3.60;3.00;;;34.40;40.80;;;;;;5096449;28;20059;-81
2022/07/22 11:16:56;;;;;;;3.90;3.50;;;34.50;40.30;;;;;;5097474;28;20111;-82
2022/07/22 11:19:27;;;;;;;3.95;3.03;;;34.50;39.60;;;;;;5096565;28;20077;-81
2022/07/22 11:22:01;;;;;;;3.88;3.10;;;34.50;39.40;;;;;;5095106;28;20101;-82
2022/07/22 11:24:28;;;;;;;3.58;3.20;;;34.50;39.60;;;;;;5096447;28;20028;-81
2022/07/22 11:26:55;;;;;;;5.63;3.45;;;34.40;39.60;;;;;;5096467;28;20054;-82
2022/07/22 11:29:28;;;;;;;4.57;3.72;;;34.40;39.80;;;;;;5095872;28;20404;-82
2022/07/22 11:31:56;;;;;;;3.85;3.40;;;34.50;39.80;;;;;;5096437;28;20154;-81
2022/07/22 11:34:23;;;;;;;4.68;2.78;;;34.50;39.70;;;;;;5095898;28;20483;-81
2022/07/22 11:36:49;;;;;;;3.20;2.90;;;34.60;40.00;;;;;;5096188;28;20118;-81
2022/07/22 11:39:19;;;;;;;3.67;2.92;;;34.70;40.20;;;;;;5094741;28;20024;-81
2022/07/22 11:41:44;;;;;;;3.88;3.47;;;34.80;39.60;;;;;;5095035;28;20039;-82
2022/07/22 11:44:10;;;;;;;4.75;3.40;;;34.80;39.50;;;;;;5094440;28;20032;-82
2022/07/22 11:46:41;;;;;;;4.18;3.28;;;34.70;38.60;;;;;;5093840;28;20456;-82
2022/07/22 11:49:08;;;;;;;4.05;3.05;;;34.80;39.00;;;;;;5095098;28;20024;-83
2022/07/22 11:51:36;;;;;;;3.70;3.00;;;34.80;39.20;;;;;;5095827;28;20043;-82
2022/07/22 11:54:04;;;;;;;3.28;2.95;;;34.80;38.80;;;;;;5096355;28;20016;-81
2022/07/22 11:56:30;;;;;;;3.97;3.20;;;34.90;38.30;;;;;;5095950;28;20081;-82
2022/07/22 11:58:56;;;;;;;3.17;2.80;;;34.90;39.00;;;;;;5095593;28;20035;-82
2022/07/22 12:01:27;;;;;;;3.17;2.88;;;35.00;39.50;;;;;;5095089;28;20461;-83
2022/07/22 12:04:02;;;;;;;3.80;3.28;;;35.00;38.30;;;;;;5095921;28;20024;-82
2022/07/22 12:06:28;;;;;;;3.75;3.17;;;35.00;38.10;;;;;;5095555;28;20028;-82
2022/07/22 12:09:06;;;;;;;4.05;3.17;;;34.90;38.20;;;;;;5095178;28;20369;-82
2022/07/22 12:11:32;;;;;;;3.55;3.25;;;34.90;38.60;;;;;;5095689;28;20020;-82
2022/07/22 12:14:08;;;;;;;4.22;3.00;;;34.90;38.70;;;;;;5095696;28;20043;-82
2022/07/22 12:16:35;;;;;;;3.95;3.10;;;34.80;38.80;;;;;;5094710;28;20476;-82
2022/07/22 12:19:07;;;;;;;4.32;3.40;;;34.80;38.70;;;;;;5094928;28;20032;-82
2022/07/22 12:21:48;;;;;;;3.60;3.30;;;34.80;39.30;;;;;;5095119;28;20508;-82
2022/07/22 12:24:14;;;;;;;3.50;3.10;;;34.80;38.90;;;;;;5094038;28;20457;-81
2022/07/22 12:26:48;;;;;;;4.55;3.15;;;34.70;38.30;;;;;;5094759;28;20035;-81
2022/07/22 12:29:36;;;;;;;4.35;3.50;;;34.60;38.90;;;;;;5094006;28;20040;-82
2022/07/22 12:32:05;;;;;;;3.72;2.78;;;34.60;39.40;;;;;;5094097;28;20103;-82
2022/07/22 12:34:32;;;;;;;3.40;2.75;;;34.60;38.90;;;;;;5095085;28;20028;-82
2022/07/22 12:36:58;;;;;;;3.55;3.25;;;34.50;38.40;;;;;;5094544;28;20116;-82
2022/07/22 12:39:24;;;;;;;4.07;3.33;;;34.30;38.40;;;;;;5093521;28;20024;-82
2022/07/22 12:41:52;;;;;;;3.83;3.10;;;34.20;38.70;;;;;;5094984;28;20038;-82
2022/07/22 12:44:22;;;;;;;4.03;3.35;;;34.20;38.70;;;;;;5093361;28;20503;-83